This is the latest recevied weather packets stored in our database for station/object K1LBG. If no packets are shown the sender has not sent any weather packets the latest 10 day(s).
| Time | Temp. | Humidity | Pressure | Rain* | Wind** | Luminosity | Snow |
|---|---|---|---|---|---|---|---|
| 1777936284 | 17.22° C | 50% | 1008.7 hPa | 0 mm | - | - | - |
| 1777933884 | 18.33° C | 48% | 1008.1 hPa | 0 mm | - | - | - |
| 1777933590 | 18.33° C | 48% | 1008.1 hPa | 0 mm | - | - | - |
| 1777926695 | 21.67° C | 37% | 1007.6 hPa | 0 mm | - | - | - |
| 1777925188 | 21.67° C | 36% | 1007.8 hPa | 0 mm | - | - | - |
| 1777924586 | 22.22° C | 37% | 1007.8 hPa | 0 mm | - | - | - |
| 1777924309 | 22.22° C | 35% | 1007.7 hPa | 0 mm | - | - | - |
| 1777923106 | 22.22° C | 37% | 1007.8 hPa | 0 mm | - | - | - |
| 1777922786 | 22.22° C | 35% | 1007.8 hPa | 0 mm | - | - | - |
| 1777922187 | 22.22° C | 34% | 1007.8 hPa | 0 mm | - | - | - |
| 1777920405 | 21.67° C | 34% | 1008.1 hPa | 0 mm | - | - | - |
| 1777917090 | 21.67° C | 35% | 1008.6 hPa | 0 mm | - | - | - |
| 1777914084 | 20.56° C | 35% | 1008.6 hPa | 0 mm | - | - | - |
| 1777913184 | 20.56° C | 36% | 1008.8 hPa | 0 mm | - | - | - |
| 1777909288 | 20.56° C | 39% | 1009.7 hPa | 0 mm | - | - | - |
| 1777908997 | 20° C | 36% | 1009.8 hPa | 0 mm | - | - | - |
| 1777908388 | 20° C | 40% | 1009.9 hPa | 0 mm | - | - | - |
| 1777906892 | 18.89° C | 42% | 1009.9 hPa | 0 mm | - | - | - |
| 1777906012 | 18.89° C | 44% | 1010.2 hPa | 0 mm | - | - | - |
| 1777902386 | 17.78° C | 50% | 1010.7 hPa | 0 mm | - | - | - |
| 1777902109 | 17.22° C | 44% | 1010.8 hPa | 0 mm | - | - | - |
| 1777899402 | 15.56° C | 49% | 1011.2 hPa | 0 mm | - | - | - |
| 1777898785 | 15° C | 48% | 1011.3 hPa | 0 mm | - | - | - |
| 1777898503 | 15° C | 48% | 1011.3 hPa | 0 mm | - | - | - |
| 1777897288 | 13.89° C | 52% | 1011.4 hPa | 0 mm | - | - | - |
* Rain latest hour (hover to see other rain measurements)
** Current wind speed in m/s (hover to see current wind gust speed)